sensor_id;sensor_type;location;lat;lon;timestamp;temperature;humidity
42683;DHT22;28293;50.930;3.464;2023-08-24T00:00:41;19.80;80.50
42683;DHT22;28293;50.930;3.464;2023-08-24T00:03:08;19.70;80.60
42683;DHT22;28293;50.930;3.464;2023-08-24T00:05:37;19.80;80.80
42683;DHT22;28293;50.930;3.464;2023-08-24T00:08:11;19.80;80.80
42683;DHT22;28293;50.930;3.464;2023-08-24T00:10:37;19.90;80.70
42683;DHT22;28293;50.930;3.464;2023-08-24T00:13:03;19.90;80.50
42683;DHT22;28293;50.930;3.464;2023-08-24T00:15:30;19.90;80.60
42683;DHT22;28293;50.930;3.464;2023-08-24T00:17:56;19.80;81.00
42683;DHT22;28293;50.930;3.464;2023-08-24T00:20:21;19.80;80.90
42683;DHT22;28293;50.930;3.464;2023-08-24T00:22:48;19.80;80.90
42683;DHT22;28293;50.930;3.464;2023-08-24T00:25:14;19.80;81.20
42683;DHT22;28293;50.930;3.464;2023-08-24T00:27:40;19.70;81.50
42683;DHT22;28293;50.930;3.464;2023-08-24T00:30:07;19.70;81.50
42683;DHT22;28293;50.930;3.464;2023-08-24T00:32:36;19.80;81.40
42683;DHT22;28293;50.930;3.464;2023-08-24T00:35:02;19.80;81.30
42683;DHT22;28293;50.930;3.464;2023-08-24T00:37:29;19.90;81.20
42683;DHT22;28293;50.930;3.464;2023-08-24T00:39:55;20.00;81.10
42683;DHT22;28293;50.930;3.464;2023-08-24T00:42:21;20.00;81.00
42683;DHT22;28293;50.930;3.464;2023-08-24T00:44:48;20.00;81.00
42683;DHT22;28293;50.930;3.464;2023-08-24T00:47:14;20.10;80.90
42683;DHT22;28293;50.930;3.464;2023-08-24T00:49:41;20.10;80.60
42683;DHT22;28293;50.930;3.464;2023-08-24T00:52:06;20.20;80.50
42683;DHT22;28293;50.930;3.464;2023-08-24T00:54:32;20.20;80.50
42683;DHT22;28293;50.930;3.464;2023-08-24T00:56:58;20.20;80.40
42683;DHT22;28293;50.930;3.464;2023-08-24T00:59:24;20.20;80.20
42683;DHT22;28293;50.930;3.464;2023-08-24T01:01:51;20.20;80.30
42683;DHT22;28293;50.930;3.464;2023-08-24T01:04:17;20.20;80.20
42683;DHT22;28293;50.930;3.464;2023-08-24T01:06:43;20.30;80.20
42683;DHT22;28293;50.930;3.464;2023-08-24T01:09:09;20.30;80.40
42683;DHT22;28293;50.930;3.464;2023-08-24T01:12:00;20.30;80.60
42683;DHT22;28293;50.930;3.464;2023-08-24T01:17:13;20.30;81.80
42683;DHT22;28293;50.930;3.464;2023-08-24T01:19:45;20.30;81.90
42683;DHT22;28293;50.930;3.464;2023-08-24T01:27:40;20.20;82.90
42683;DHT22;28293;50.930;3.464;2023-08-24T01:30:07;20.20;83.10
42683;DHT22;28293;50.930;3.464;2023-08-24T01:32:34;20.10;83.10
42683;DHT22;28293;50.930;3.464;2023-08-24T01:35:06;20.00;83.40
42683;DHT22;28293;50.930;3.464;2023-08-24T01:37:34;20.00;83.80
42683;DHT22;28293;50.930;3.464;2023-08-24T01:40:07;20.00;84.10
42683;DHT22;28293;50.930;3.464;2023-08-24T01:42:48;19.90;83.80
42683;DHT22;28293;50.930;3.464;2023-08-24T01:45:17;19.90;84.00
42683;DHT22;28293;50.930;3.464;2023-08-24T01:47:45;19.90;84.30
42683;DHT22;28293;50.930;3.464;2023-08-24T01:50:12;19.90;84.40
42683;DHT22;28293;50.930;3.464;2023-08-24T01:52:39;19.80;84.20
42683;DHT22;28293;50.930;3.464;2023-08-24T01:55:06;19.80;84.60
42683;DHT22;28293;50.930;3.464;2023-08-24T01:57:31;19.80;85.00
42683;DHT22;28293;50.930;3.464;2023-08-24T01:59:57;19.80;84.80
42683;DHT22;28293;50.930;3.464;2023-08-24T02:02:25;19.80;84.70
42683;DHT22;28293;50.930;3.464;2023-08-24T02:04:51;19.80;84.70
42683;DHT22;28293;50.930;3.464;2023-08-24T02:07:16;19.70;84.70
42683;DHT22;28293;50.930;3.464;2023-08-24T02:09:42;19.70;84.80
42683;DHT22;28293;50.930;3.464;2023-08-24T02:12:08;19.60;85.10
42683;DHT22;28293;50.930;3.464;2023-08-24T02:14:33;19.60;85.30
42683;DHT22;28293;50.930;3.464;2023-08-24T02:16:59;19.60;85.20
42683;DHT22;28293;50.930;3.464;2023-08-24T02:19:25;19.50;85.20
42683;DHT22;28293;50.930;3.464;2023-08-24T02:21:50;19.50;85.40
42683;DHT22;28293;50.930;3.464;2023-08-24T02:24:16;19.50;85.50
42683;DHT22;28293;50.930;3.464;2023-08-24T02:26:41;19.40;85.40
42683;DHT22;28293;50.930;3.464;2023-08-24T02:29:07;19.40;85.40
42683;DHT22;28293;50.930;3.464;2023-08-24T02:31:33;19.40;85.40
42683;DHT22;28293;50.930;3.464;2023-08-24T02:33:59;19.30;85.30
42683;DHT22;28293;50.930;3.464;2023-08-24T02:36:24;19.30;85.40
42683;DHT22;28293;50.930;3.464;2023-08-24T02:38:50;19.30;85.30
42683;DHT22;28293;50.930;3.464;2023-08-24T02:41:15;19.30;85.30
42683;DHT22;28293;50.930;3.464;2023-08-24T02:43:41;19.30;85.10
42683;DHT22;28293;50.930;3.464;2023-08-24T02:46:08;19.30;85.10
42683;DHT22;28293;50.930;3.464;2023-08-24T02:48:34;19.20;84.90
42683;DHT22;28293;50.930;3.464;2023-08-24T02:51:02;19.30;84.70
42683;DHT22;28293;50.930;3.464;2023-08-24T02:53:28;19.20;84.50
42683;DHT22;28293;50.930;3.464;2023-08-24T02:55:55;19.30;84.40
42683;DHT22;28293;50.930;3.464;2023-08-24T02:58:21;19.30;84.30
42683;DHT22;28293;50.930;3.464;2023-08-24T03:00:47;19.20;84.10
42683;DHT22;28293;50.930;3.464;2023-08-24T03:03:14;19.20;84.00
42683;DHT22;28293;50.930;3.464;2023-08-24T03:05:40;19.20;83.80
42683;DHT22;28293;50.930;3.464;2023-08-24T03:08:06;19.20;83.60
42683;DHT22;28293;50.930;3.464;2023-08-24T03:10:35;19.30;83.30
42683;DHT22;28293;50.930;3.464;2023-08-24T03:13:01;19.30;83.30
42683;DHT22;28293;50.930;3.464;2023-08-24T03:15:28;19.30;83.10
42683;DHT22;28293;50.930;3.464;2023-08-24T03:17:54;19.30;83.20
42683;DHT22;28293;50.930;3.464;2023-08-24T03:20:19;19.30;83.20
42683;DHT22;28293;50.930;3.464;2023-08-24T03:22:45;19.30;83.20
42683;DHT22;28293;50.930;3.464;2023-08-24T03:25:11;19.30;83.30
42683;DHT22;28293;50.930;3.464;2023-08-24T03:27:37;19.30;83.40
42683;DHT22;28293;50.930;3.464;2023-08-24T03:30:04;19.30;83.50
42683;DHT22;28293;50.930;3.464;2023-08-24T03:32:29;19.30;83.50
42683;DHT22;28293;50.930;3.464;2023-08-24T03:34:59;19.30;83.50
42683;DHT22;28293;50.930;3.464;2023-08-24T03:37:25;19.30;83.60
42683;DHT22;28293;50.930;3.464;2023-08-24T03:39:51;19.20;83.80
42683;DHT22;28293;50.930;3.464;2023-08-24T03:42:16;19.20;84.00
42683;DHT22;28293;50.930;3.464;2023-08-24T03:44:42;19.20;84.10
42683;DHT22;28293;50.930;3.464;2023-08-24T03:47:08;19.10;84.40
42683;DHT22;28293;50.930;3.464;2023-08-24T03:49:34;19.20;84.50
42683;DHT22;28293;50.930;3.464;2023-08-24T03:52:00;19.10;84.70
42683;DHT22;28293;50.930;3.464;2023-08-24T03:54:25;19.10;84.80
42683;DHT22;28293;50.930;3.464;2023-08-24T03:56:51;19.10;84.90
42683;DHT22;28293;50.930;3.464;2023-08-24T03:59:17;19.00;84.80
42683;DHT22;28293;50.930;3.464;2023-08-24T04:01:42;19.00;84.80
42683;DHT22;28293;50.930;3.464;2023-08-24T04:04:08;18.90;85.00
42683;DHT22;28293;50.930;3.464;2023-08-24T04:06:34;18.90;85.00
42683;DHT22;28293;50.930;3.464;2023-08-24T04:08:59;18.90;85.10
42683;DHT22;28293;50.930;3.464;2023-08-24T04:11:25;18.90;84.90
42683;DHT22;28293;50.930;3.464;2023-08-24T04:13:51;18.90;85.10
42683;DHT22;28293;50.930;3.464;2023-08-24T04:16:17;18.80;85.20
42683;DHT22;28293;50.930;3.464;2023-08-24T04:18:42;18.80;85.20
42683;DHT22;28293;50.930;3.464;2023-08-24T04:21:08;18.80;85.40
42683;DHT22;28293;50.930;3.464;2023-08-24T04:23:34;18.70;85.50
42683;DHT22;28293;50.930;3.464;2023-08-24T04:25:59;18.70;85.70
42683;DHT22;28293;50.930;3.464;2023-08-24T04:28:25;18.70;85.60
42683;DHT22;28293;50.930;3.464;2023-08-24T04:30:54;18.80;85.60
42683;DHT22;28293;50.930;3.464;2023-08-24T04:33:21;18.80;85.70
42683;DHT22;28293;50.930;3.464;2023-08-24T04:35:51;18.80;85.70
42683;DHT22;28293;50.930;3.464;2023-08-24T04:38:17;18.70;85.70
42683;DHT22;28293;50.930;3.464;2023-08-24T04:40:47;18.70;85.70
42683;DHT22;28293;50.930;3.464;2023-08-24T04:43:13;18.70;85.80
42683;DHT22;28293;50.930;3.464;2023-08-24T04:45:39;18.60;85.80
42683;DHT22;28293;50.930;3.464;2023-08-24T04:48:05;18.70;85.90
42683;DHT22;28293;50.930;3.464;2023-08-24T04:50:31;18.60;85.90
42683;DHT22;28293;50.930;3.464;2023-08-24T04:52:56;18.60;85.90
42683;DHT22;28293;50.930;3.464;2023-08-24T04:55:22;18.60;85.90
42683;DHT22;28293;50.930;3.464;2023-08-24T04:57:48;18.70;85.90
42683;DHT22;28293;50.930;3.464;2023-08-24T05:00:14;18.60;85.90
42683;DHT22;28293;50.930;3.464;2023-08-24T05:02:42;18.70;85.90
42683;DHT22;28293;50.930;3.464;2023-08-24T05:05:08;18.70;85.90
42683;DHT22;28293;50.930;3.464;2023-08-24T05:07:39;18.70;85.80
42683;DHT22;28293;50.930;3.464;2023-08-24T05:10:05;18.80;85.90
42683;DHT22;28293;50.930;3.464;2023-08-24T05:12:32;18.80;85.90
42683;DHT22;28293;50.930;3.464;2023-08-24T05:14:59;18.90;85.80
42683;DHT22;28293;50.930;3.464;2023-08-24T05:17:25;19.00;85.70
42683;DHT22;28293;50.930;3.464;2023-08-24T05:19:53;19.00;85.40
42683;DHT22;28293;50.930;3.464;2023-08-24T05:22:20;19.00;85.20
42683;DHT22;28293;50.930;3.464;2023-08-24T05:24:46;19.00;85.30
42683;DHT22;28293;50.930;3.464;2023-08-24T05:27:12;19.10;85.00
42683;DHT22;28293;50.930;3.464;2023-08-24T05:29:37;19.10;84.60
42683;DHT22;28293;50.930;3.464;2023-08-24T05:32:03;19.10;84.40
42683;DHT22;28293;50.930;3.464;2023-08-24T05:34:29;19.10;84.20
42683;DHT22;28293;50.930;3.464;2023-08-24T05:36:55;19.10;84.30
42683;DHT22;28293;50.930;3.464;2023-08-24T05:39:20;19.10;84.20
42683;DHT22;28293;50.930;3.464;2023-08-24T05:41:49;19.10;84.40
42683;DHT22;28293;50.930;3.464;2023-08-24T05:44:15;19.10;84.40
42683;DHT22;28293;50.930;3.464;2023-08-24T05:46:42;19.20;84.40
42683;DHT22;28293;50.930;3.464;2023-08-24T05:49:08;19.30;84.30
42683;DHT22;28293;50.930;3.464;2023-08-24T05:51:34;19.40;84.10
42683;DHT22;28293;50.930;3.464;2023-08-24T05:54:00;19.50;83.80
42683;DHT22;28293;50.930;3.464;2023-08-24T05:56:26;19.50;84.00
42683;DHT22;28293;50.930;3.464;2023-08-24T05:58:51;19.60;83.70
42683;DHT22;28293;50.930;3.464;2023-08-24T06:01:17;19.70;83.60
42683;DHT22;28293;50.930;3.464;2023-08-24T06:03:43;19.80;83.20
42683;DHT22;28293;50.930;3.464;2023-08-24T06:06:09;19.80;83.20
42683;DHT22;28293;50.930;3.464;2023-08-24T06:08:35;19.90;83.10
42683;DHT22;28293;50.930;3.464;2023-08-24T06:11:01;20.00;82.90
42683;DHT22;28293;50.930;3.464;2023-08-24T06:13:27;20.10;82.80
42683;DHT22;28293;50.930;3.464;2023-08-24T06:15:53;20.30;82.60
42683;DHT22;28293;50.930;3.464;2023-08-24T06:18:20;20.50;82.10
42683;DHT22;28293;50.930;3.464;2023-08-24T06:20:46;20.60;81.60
42683;DHT22;28293;50.930;3.464;2023-08-24T06:23:15;20.60;81.50
42683;DHT22;28293;50.930;3.464;2023-08-24T06:25:41;20.60;81.40
42683;DHT22;28293;50.930;3.464;2023-08-24T06:28:07;20.80;81.30
42683;DHT22;28293;50.930;3.464;2023-08-24T06:30:45;21.00;80.60
42683;DHT22;28293;50.930;3.464;2023-08-24T06:33:13;21.00;80.50
42683;DHT22;28293;50.930;3.464;2023-08-24T06:35:38;21.20;80.40
42683;DHT22;28293;50.930;3.464;2023-08-24T06:38:04;21.30;79.40
42683;DHT22;28293;50.930;3.464;2023-08-24T06:40:30;21.40;79.50
42683;DHT22;28293;50.930;3.464;2023-08-24T06:42:57;21.40;79.10
42683;DHT22;28293;50.930;3.464;2023-08-24T06:45:23;21.50;79.20
42683;DHT22;28293;50.930;3.464;2023-08-24T06:47:48;21.60;79.40
42683;DHT22;28293;50.930;3.464;2023-08-24T06:50:14;21.60;79.00
42683;DHT22;28293;50.930;3.464;2023-08-24T06:52:41;21.60;79.50
42683;DHT22;28293;50.930;3.464;2023-08-24T06:55:08;21.70;79.40
42683;DHT22;28293;50.930;3.464;2023-08-24T06:57:35;21.70;79.40
42683;DHT22;28293;50.930;3.464;2023-08-24T07:00:01;21.70;79.10
42683;DHT22;28293;50.930;3.464;2023-08-24T07:02:26;21.70;79.40
42683;DHT22;28293;50.930;3.464;2023-08-24T07:04:52;21.60;79.30
42683;DHT22;28293;50.930;3.464;2023-08-24T07:07:18;21.60;79.90
42683;DHT22;28293;50.930;3.464;2023-08-24T07:09:43;21.60;79.80
42683;DHT22;28293;50.930;3.464;2023-08-24T07:12:09;21.60;80.00
42683;DHT22;28293;50.930;3.464;2023-08-24T07:14:38;21.60;80.20
42683;DHT22;28293;50.930;3.464;2023-08-24T07:17:06;21.50;80.40
42683;DHT22;28293;50.930;3.464;2023-08-24T07:19:32;21.50;80.60
42683;DHT22;28293;50.930;3.464;2023-08-24T07:21:58;21.50;81.00
42683;DHT22;28293;50.930;3.464;2023-08-24T07:24:23;21.50;80.90
42683;DHT22;28293;50.930;3.464;2023-08-24T07:26:52;21.40;80.90
42683;DHT22;28293;50.930;3.464;2023-08-24T07:29:19;21.50;81.20
42683;DHT22;28293;50.930;3.464;2023-08-24T07:31:45;21.40;81.40
42683;DHT22;28293;50.930;3.464;2023-08-24T07:34:10;21.40;81.30
42683;DHT22;28293;50.930;3.464;2023-08-24T07:36:36;21.30;81.60
42683;DHT22;28293;50.930;3.464;2023-08-24T07:39:02;21.10;82.10
42683;DHT22;28293;50.930;3.464;2023-08-24T07:41:28;21.10;82.50
42683;DHT22;28293;50.930;3.464;2023-08-24T07:43:53;21.10;82.80
42683;DHT22;28293;50.930;3.464;2023-08-24T07:46:19;21.10;82.50
42683;DHT22;28293;50.930;3.464;2023-08-24T07:48:45;21.10;82.70
42683;DHT22;28293;50.930;3.464;2023-08-24T07:51:10;21.10;82.70
42683;DHT22;28293;50.930;3.464;2023-08-24T07:53:36;21.10;82.60
42683;DHT22;28293;50.930;3.464;2023-08-24T07:56:02;21.10;82.60
42683;DHT22;28293;50.930;3.464;2023-08-24T07:58:28;21.10;82.70
42683;DHT22;28293;50.930;3.464;2023-08-24T08:00:56;21.10;82.80
42683;DHT22;28293;50.930;3.464;2023-08-24T08:03:22;21.10;83.00
42683;DHT22;28293;50.930;3.464;2023-08-24T08:05:48;21.10;83.10
42683;DHT22;28293;50.930;3.464;2023-08-24T08:08:14;21.10;83.20
42683;DHT22;28293;50.930;3.464;2023-08-24T08:10:40;21.10;83.50
42683;DHT22;28293;50.930;3.464;2023-08-24T08:13:07;21.10;83.70
42683;DHT22;28293;50.930;3.464;2023-08-24T08:15:33;21.00;83.90
42683;DHT22;28293;50.930;3.464;2023-08-24T08:17:58;21.00;84.10
42683;DHT22;28293;50.930;3.464;2023-08-24T08:20:24;20.90;84.30
42683;DHT22;28293;50.930;3.464;2023-08-24T08:22:50;20.90;84.40
42683;DHT22;28293;50.930;3.464;2023-08-24T08:25:16;20.90;84.50
42683;DHT22;28293;50.930;3.464;2023-08-24T08:27:43;21.00;84.80
42683;DHT22;28293;50.930;3.464;2023-08-24T08:30:09;20.90;84.80
42683;DHT22;28293;50.930;3.464;2023-08-24T08:32:35;20.90;85.00
42683;DHT22;28293;50.930;3.464;2023-08-24T08:35:01;20.90;85.10
42683;DHT22;28293;50.930;3.464;2023-08-24T08:37:30;20.80;85.30
42683;DHT22;28293;50.930;3.464;2023-08-24T08:39:57;20.90;85.60
42683;DHT22;28293;50.930;3.464;2023-08-24T08:42:23;20.90;85.80
42683;DHT22;28293;50.930;3.464;2023-08-24T08:44:49;20.80;86.00
42683;DHT22;28293;50.930;3.464;2023-08-24T08:47:16;20.80;86.30
42683;DHT22;28293;50.930;3.464;2023-08-24T08:49:43;20.70;86.70
42683;DHT22;28293;50.930;3.464;2023-08-24T08:52:10;20.60;87.30
42683;DHT22;28293;50.930;3.464;2023-08-24T08:54:37;20.60;87.90
42683;DHT22;28293;50.930;3.464;2023-08-24T08:57:02;20.60;88.20
42683;DHT22;28293;50.930;3.464;2023-08-24T08:59:29;20.60;88.60
42683;DHT22;28293;50.930;3.464;2023-08-24T09:01:56;20.60;89.00
42683;DHT22;28293;50.930;3.464;2023-08-24T09:04:24;20.60;89.20
42683;DHT22;28293;50.930;3.464;2023-08-24T09:06:50;20.60;89.20
42683;DHT22;28293;50.930;3.464;2023-08-24T09:09:16;20.70;89.20
42683;DHT22;28293;50.930;3.464;2023-08-24T09:11:42;20.80;89.20
42683;DHT22;28293;50.930;3.464;2023-08-24T09:14:12;20.80;89.30
42683;DHT22;28293;50.930;3.464;2023-08-24T09:16:39;20.80;89.10
42683;DHT22;28293;50.930;3.464;2023-08-24T09:19:05;20.90;89.20
42683;DHT22;28293;50.930;3.464;2023-08-24T09:21:37;20.90;89.10
42683;DHT22;28293;50.930;3.464;2023-08-24T09:24:03;20.90;89.00
42683;DHT22;28293;50.930;3.464;2023-08-24T09:26:34;20.90;89.00
42683;DHT22;28293;50.930;3.464;2023-08-24T09:29:05;20.90;89.00
42683;DHT22;28293;50.930;3.464;2023-08-24T09:31:36;21.00;88.80
42683;DHT22;28293;50.930;3.464;2023-08-24T09:34:05;21.00;87.90
42683;DHT22;28293;50.930;3.464;2023-08-24T09:36:35;21.00;87.80
42683;DHT22;28293;50.930;3.464;2023-08-24T09:39:02;21.00;87.70
42683;DHT22;28293;50.930;3.464;2023-08-24T09:41:43;21.00;87.70
42683;DHT22;28293;50.930;3.464;2023-08-24T09:44:09;20.90;88.10
42683;DHT22;28293;50.930;3.464;2023-08-24T09:46:36;20.90;88.20
42683;DHT22;28293;50.930;3.464;2023-08-24T09:49:05;20.90;88.50
42683;DHT22;28293;50.930;3.464;2023-08-24T09:51:33;20.90;88.80
42683;DHT22;28293;50.930;3.464;2023-08-24T09:54:03;20.90;88.70
42683;DHT22;28293;50.930;3.464;2023-08-24T09:56:33;20.90;88.80
42683;DHT22;28293;50.930;3.464;2023-08-24T09:59:00;21.00;88.90
42683;DHT22;28293;50.930;3.464;2023-08-24T10:01:30;20.90;89.00
42683;DHT22;28293;50.930;3.464;2023-08-24T10:03:57;21.00;89.20
42683;DHT22;28293;50.930;3.464;2023-08-24T10:06:27;21.00;88.90
42683;DHT22;28293;50.930;3.464;2023-08-24T10:08:58;21.10;89.00
42683;DHT22;28293;50.930;3.464;2023-08-24T10:11:28;21.10;88.70
42683;DHT22;28293;50.930;3.464;2023-08-24T10:14:12;21.30;88.50
42683;DHT22;28293;50.930;3.464;2023-08-24T10:16:41;21.70;87.80
42683;DHT22;28293;50.930;3.464;2023-08-24T10:19:09;21.90;86.90
42683;DHT22;28293;50.930;3.464;2023-08-24T10:21:37;22.10;86.20
42683;DHT22;28293;50.930;3.464;2023-08-24T10:24:04;22.50;85.40
42683;DHT22;28293;50.930;3.464;2023-08-24T10:26:30;22.50;84.40
42683;DHT22;28293;50.930;3.464;2023-08-24T10:28:58;22.60;83.90
42683;DHT22;28293;50.930;3.464;2023-08-24T10:31:24;22.60;83.20
42683;DHT22;28293;50.930;3.464;2023-08-24T10:33:50;22.80;82.80
42683;DHT22;28293;50.930;3.464;2023-08-24T10:36:16;23.00;82.80
42683;DHT22;28293;50.930;3.464;2023-08-24T10:38:43;23.10;82.20
42683;DHT22;28293;50.930;3.464;2023-08-24T10:41:10;23.10;82.20
42683;DHT22;28293;50.930;3.464;2023-08-24T10:43:40;23.20;82.00
42683;DHT22;28293;50.930;3.464;2023-08-24T10:46:16;23.50;82.10
42683;DHT22;28293;50.930;3.464;2023-08-24T10:51:23;23.80;80.60
42683;DHT22;28293;50.930;3.464;2023-08-24T10:53:59;23.90;80.30
42683;DHT22;28293;50.930;3.464;2023-08-24T10:56:38;24.00;79.30
42683;DHT22;28293;50.930;3.464;2023-08-24T10:59:17;24.10;79.00
42683;DHT22;28293;50.930;3.464;2023-08-24T11:01:55;24.10;78.90
42683;DHT22;28293;50.930;3.464;2023-08-24T11:04:21;24.00;80.20
42683;DHT22;28293;50.930;3.464;2023-08-24T11:06:57;24.00;80.40
42683;DHT22;28293;50.930;3.464;2023-08-24T11:09:24;23.90;80.40
42683;DHT22;28293;50.930;3.464;2023-08-24T11:12:00;23.80;79.60
42683;DHT22;28293;50.930;3.464;2023-08-24T11:14:26;23.70;80.20
42683;DHT22;28293;50.930;3.464;2023-08-24T11:16:52;23.70;79.60
42683;DHT22;28293;50.930;3.464;2023-08-24T11:19:18;23.60;79.20
42683;DHT22;28293;50.930;3.464;2023-08-24T11:21:45;23.50;79.10
42683;DHT22;28293;50.930;3.464;2023-08-24T11:24:15;23.60;79.30
42683;DHT22;28293;50.930;3.464;2023-08-24T11:26:46;23.70;78.90
42683;DHT22;28293;50.930;3.464;2023-08-24T11:29:12;23.60;78.50
42683;DHT22;28293;50.930;3.464;2023-08-24T11:31:38;23.70;78.60
42683;DHT22;28293;50.930;3.464;2023-08-24T11:34:06;23.60;78.30
42683;DHT22;28293;50.930;3.464;2023-08-24T11:36:46;23.60;78.90
42683;DHT22;28293;50.930;3.464;2023-08-24T11:39:16;23.70;79.40
42683;DHT22;28293;50.930;3.464;2023-08-24T11:42:06;23.70;79.10
42683;DHT22;28293;50.930;3.464;2023-08-24T11:44:48;23.70;78.80
42683;DHT22;28293;50.930;3.464;2023-08-24T11:47:14;23.50;78.70
42683;DHT22;28293;50.930;3.464;2023-08-24T11:49:40;23.50;79.40
42683;DHT22;28293;50.930;3.464;2023-08-24T11:52:06;23.50;79.70
42683;DHT22;28293;50.930;3.464;2023-08-24T11:54:33;23.50;79.80
42683;DHT22;28293;50.930;3.464;2023-08-24T11:56:58;23.40;79.30
42683;DHT22;28293;50.930;3.464;2023-08-24T11:59:24;23.30;79.70
42683;DHT22;28293;50.930;3.464;2023-08-24T12:01:51;23.30;80.00
42683;DHT22;28293;50.930;3.464;2023-08-24T12:04:18;23.40;80.20
42683;DHT22;28293;50.930;3.464;2023-08-24T12:06:44;23.50;80.10
42683;DHT22;28293;50.930;3.464;2023-08-24T12:09:10;23.50;79.60
42683;DHT22;28293;50.930;3.464;2023-08-24T12:11:38;23.50;79.40
42683;DHT22;28293;50.930;3.464;2023-08-24T12:14:05;23.60;78.90
42683;DHT22;28293;50.930;3.464;2023-08-24T12:16:35;23.80;78.00
42683;DHT22;28293;50.930;3.464;2023-08-24T12:19:00;23.90;78.30
42683;DHT22;28293;50.930;3.464;2023-08-24T12:21:29;24.10;78.30
42683;DHT22;28293;50.930;3.464;2023-08-24T12:24:05;24.20;78.00
42683;DHT22;28293;50.930;3.464;2023-08-24T12:26:34;24.20;76.90
42683;DHT22;28293;50.930;3.464;2023-08-24T12:31:28;24.10;76.50
42683;DHT22;28293;50.930;3.464;2023-08-24T12:34:07;24.10;77.40
42683;DHT22;28293;50.930;3.464;2023-08-24T12:36:38;24.20;77.00
42683;DHT22;28293;50.930;3.464;2023-08-24T12:39:05;24.20;76.60
42683;DHT22;28293;50.930;3.464;2023-08-24T12:41:31;24.10;76.70
42683;DHT22;28293;50.930;3.464;2023-08-24T12:43:57;23.90;77.30
42683;DHT22;28293;50.930;3.464;2023-08-24T12:46:23;23.90;77.60
42683;DHT22;28293;50.930;3.464;2023-08-24T12:48:49;24.00;77.90
42683;DHT22;28293;50.930;3.464;2023-08-24T12:51:15;23.90;77.40
42683;DHT22;28293;50.930;3.464;2023-08-24T12:53:41;23.80;77.00
42683;DHT22;28293;50.930;3.464;2023-08-24T12:56:07;23.80;77.10
42683;DHT22;28293;50.930;3.464;2023-08-24T12:58:33;23.90;77.40
42683;DHT22;28293;50.930;3.464;2023-08-24T13:00:59;23.80;77.00
42683;DHT22;28293;50.930;3.464;2023-08-24T13:03:25;24.00;77.10
42683;DHT22;28293;50.930;3.464;2023-08-24T13:05:51;24.10;76.90
42683;DHT22;28293;50.930;3.464;2023-08-24T13:08:16;24.20;76.60
42683;DHT22;28293;50.930;3.464;2023-08-24T13:10:42;24.40;75.80
42683;DHT22;28293;50.930;3.464;2023-08-24T13:13:08;24.50;75.40
42683;DHT22;28293;50.930;3.464;2023-08-24T13:15:33;24.60;74.80
42683;DHT22;28293;50.930;3.464;2023-08-24T13:17:59;24.60;74.50
42683;DHT22;28293;50.930;3.464;2023-08-24T13:20:25;24.70;74.50
42683;DHT22;28293;50.930;3.464;2023-08-24T13:22:53;24.70;74.30
42683;DHT22;28293;50.930;3.464;2023-08-24T13:25:19;24.90;73.60
42683;DHT22;28293;50.930;3.464;2023-08-24T13:27:45;25.00;73.50
42683;DHT22;28293;50.930;3.464;2023-08-24T13:30:11;25.20;72.70
42683;DHT22;28293;50.930;3.464;2023-08-24T13:32:37;25.20;72.70
42683;DHT22;28293;50.930;3.464;2023-08-24T13:35:04;25.30;72.80
42683;DHT22;28293;50.930;3.464;2023-08-24T13:37:30;25.40;72.80
42683;DHT22;28293;50.930;3.464;2023-08-24T13:39:58;25.20;73.00
42683;DHT22;28293;50.930;3.464;2023-08-24T13:42:24;25.10;72.50
42683;DHT22;28293;50.930;3.464;2023-08-24T13:44:50;25.00;72.60
42683;DHT22;28293;50.930;3.464;2023-08-24T13:47:15;25.10;72.70
42683;DHT22;28293;50.930;3.464;2023-08-24T13:49:41;25.10;71.80
42683;DHT22;28293;50.930;3.464;2023-08-24T13:52:08;25.10;72.40
42683;DHT22;28293;50.930;3.464;2023-08-24T13:54:34;25.20;73.00
42683;DHT22;28293;50.930;3.464;2023-08-24T13:57:00;25.40;72.20
42683;DHT22;28293;50.930;3.464;2023-08-24T13:59:26;25.30;71.40
42683;DHT22;28293;50.930;3.464;2023-08-24T14:01:52;25.20;72.30
42683;DHT22;28293;50.930;3.464;2023-08-24T14:04:18;25.30;72.30
42683;DHT22;28293;50.930;3.464;2023-08-24T14:06:44;25.00;72.00
42683;DHT22;28293;50.930;3.464;2023-08-24T14:09:10;24.90;72.30
42683;DHT22;28293;50.930;3.464;2023-08-24T14:11:36;24.80;72.20
42683;DHT22;28293;50.930;3.464;2023-08-24T14:14:01;24.70;72.90
42683;DHT22;28293;50.930;3.464;2023-08-24T14:16:27;24.60;73.50
42683;DHT22;28293;50.930;3.464;2023-08-24T14:18:53;24.50;73.20
42683;DHT22;28293;50.930;3.464;2023-08-24T14:21:19;24.50;73.60
42683;DHT22;28293;50.930;3.464;2023-08-24T14:23:46;24.50;73.90
42683;DHT22;28293;50.930;3.464;2023-08-24T14:26:12;24.50;73.70
42683;DHT22;28293;50.930;3.464;2023-08-24T14:29:07;24.60;74.10
42683;DHT22;28293;50.930;3.464;2023-08-24T14:31:34;24.70;73.70
42683;DHT22;28293;50.930;3.464;2023-08-24T14:33:59;24.70;73.30
42683;DHT22;28293;50.930;3.464;2023-08-24T14:36:25;24.80;73.20
42683;DHT22;28293;50.930;3.464;2023-08-24T14:38:51;24.90;73.60
42683;DHT22;28293;50.930;3.464;2023-08-24T14:41:19;25.10;74.00
42683;DHT22;28293;50.930;3.464;2023-08-24T14:43:46;25.20;72.90
42683;DHT22;28293;50.930;3.464;2023-08-24T14:46:12;25.30;71.90
42683;DHT22;28293;50.930;3.464;2023-08-24T14:48:37;25.20;71.70
42683;DHT22;28293;50.930;3.464;2023-08-24T14:51:04;25.30;71.70
42683;DHT22;28293;50.930;3.464;2023-08-24T14:53:30;25.40;71.60
42683;DHT22;28293;50.930;3.464;2023-08-24T14:55:56;25.50;72.10
42683;DHT22;28293;50.930;3.464;2023-08-24T14:58:24;25.60;71.70
42683;DHT22;28293;50.930;3.464;2023-08-24T15:00:51;25.70;71.20
42683;DHT22;28293;50.930;3.464;2023-08-24T15:03:17;25.80;70.50
42683;DHT22;28293;50.930;3.464;2023-08-24T15:05:45;25.70;70.70
42683;DHT22;28293;50.930;3.464;2023-08-24T15:08:11;25.70;70.70
42683;DHT22;28293;50.930;3.464;2023-08-24T15:10:37;25.70;71.10
42683;DHT22;28293;50.930;3.464;2023-08-24T15:13:03;25.80;70.50
42683;DHT22;28293;50.930;3.464;2023-08-24T15:15:29;25.90;70.50
42683;DHT22;28293;50.930;3.464;2023-08-24T15:17:55;26.10;70.00
42683;DHT22;28293;50.930;3.464;2023-08-24T15:20:21;26.10;69.60
42683;DHT22;28293;50.930;3.464;2023-08-24T15:22:46;26.10;69.50
42683;DHT22;28293;50.930;3.464;2023-08-24T15:25:12;26.30;69.20
42683;DHT22;28293;50.930;3.464;2023-08-24T15:27:38;26.40;69.80
42683;DHT22;28293;50.930;3.464;2023-08-24T15:30:04;26.40;68.30
42683;DHT22;28293;50.930;3.464;2023-08-24T15:32:31;26.20;68.20
42683;DHT22;28293;50.930;3.464;2023-08-24T15:34:58;26.10;68.50
42683;DHT22;28293;50.930;3.464;2023-08-24T15:37:23;26.20;68.80
42683;DHT22;28293;50.930;3.464;2023-08-24T15:39:49;26.30;68.30
42683;DHT22;28293;50.930;3.464;2023-08-24T15:42:15;26.50;68.00